KRKR/RKR METAR and TAF weather

Enter ICAO airport designator
Station Type Date Time Source
KRKR METAR 2018/12/11 22:35 UTC NOAA

KRKR 112235Z AUTO 17008KT 10SM CLR 12/00 A3013 RMK AO2


Station Type Date Time Source
KRKR Decoded METAR 2018/12/11 22:35 UTC NOAA

Poteau, Robert S Kerr Airport, OK, United States (KRKR) 35-01-18N 094-37-17W
Dec 11, 2018 - 05:35 PM EST / 2018.12.11 2235 UTC
Wind: from the S (170 degrees) at 9 MPH (8 KT):0
Visibility: 10 mile(s):0
Sky conditions: clear
Temperature: 53 F (12 C)
Dew Point: 32 F (0 C)
Relative Humidity: 43%
Pressure (altimeter): 30.13 in. Hg (1020 hPa)
ob: KRKR 112235Z AUTO 17008KT 10SM CLR 12/00 A3013 RMK AO2
cycle: 22

Station Type Date Time Source
KRKR TAF UTC NOAA

Error!


Example: see airport list